Time;durP1;ratioP1;P1;durP2;ratioP2;P2;SDS_P1;SDS_P2;PMS_P1;PMS_P2;Temp;Humidity;BMP_temperature;BMP_pressure;BME280_temperature;BME280_humidity;BME280_pressure;Samples;Min_cycle;Max_cycle;Signal;HPM_P1;HPM_P2
2022/07/18 00:01:25;;;;;;;2.72;1.98;;;;;;;29.38;40.66;101296.16;5111532;28;20054;-68
2022/07/18 00:04:10;;;;;;;5.03;2.35;;;;;;;29.32;40.66;101293.06;5111065;28;20047;-68
2022/07/18 00:06:55;;;;;;;8.65;2.08;;;;;;;29.33;41.05;101295.44;5098857;28;20395;-68
2022/07/18 00:09:41;;;;;;;2.78;2.10;;;;;;;29.34;40.74;101293.44;5099633;28;20042;-69
2022/07/18 00:12:26;;;;;;;4.40;1.60;;;;;;;29.32;41.01;101287.47;5110818;28;20047;-67
2022/07/18 00:15:11;;;;;;;6.25;2.08;;;;;;;29.30;41.31;101293.50;5093740;28;20051;-68
2022/07/18 00:17:56;;;;;;;3.50;1.83;;;;;;;29.31;41.53;101294.28;5107373;28;20054;-68
2022/07/18 00:20:42;;;;;;;2.63;1.73;;;;;;;29.30;41.22;101287.88;5111495;28;20051;-69
2022/07/18 00:23:27;;;;;;;6.00;2.08;;;;;;;29.35;41.55;101300.63;5109025;28;20521;-68
2022/07/18 00:26:12;;;;;;;3.70;1.95;;;;;;;29.35;41.58;101294.22;5102607;28;20064;-68
2022/07/18 00:28:57;;;;;;;2.72;2.10;;;;;;;29.36;41.92;101296.59;5106921;28;20054;-68
2022/07/18 00:31:42;;;;;;;1.70;1.35;;;;;;;29.39;41.73;101295.75;5104526;28;20376;-68
2022/07/18 00:34:27;;;;;;;4.00;1.65;;;;;;;29.44;41.29;101298.03;5099774;28;20047;-67
2022/07/18 00:37:12;;;;;;;9.82;2.00;;;;;;;29.48;41.32;101304.38;5095780;28;20385;-68
2022/07/18 00:39:57;;;;;;;4.07;1.80;;;;;;;29.49;41.53;101308.75;5112792;28;20042;-68
2022/07/18 00:42:42;;;;;;;3.20;2.10;;;;;;;29.29;39.75;101310.72;5115167;28;20051;-67
2022/07/18 00:45:27;;;;;;;15.45;2.92;;;;;;;29.29;39.47;101313.53;5113188;28;20070;-70
2022/07/18 00:48:13;;;;;;;6.75;2.67;;;;;;;29.09;38.57;101307.88;5106090;28;20085;-69
2022/07/18 00:50:57;;;;;;;6.57;2.83;;;;;;;28.40;39.63;101312.19;5114328;28;20500;-69
2022/07/18 00:53:44;;;;;;;5.78;2.90;;;;;;;27.97;40.70;101305.59;5102524;28;20449;-69
2022/07/18 00:56:29;;;;;;;5.85;3.03;;;;;;;27.69;41.40;101315.13;5094987;28;20054;-69
2022/07/18 00:59:14;;;;;;;5.15;2.90;;;;;;;27.48;42.22;101304.22;5101714;28;20040;-69
2022/07/18 01:01:59;;;;;;;3.85;3.10;;;;;;;26.87;43.89;101309.59;5098077;28;20071;-69
2022/07/18 01:04:44;;;;;;;6.13;2.88;;;;;;;26.55;45.44;101298.69;5100479;28;20062;-69
2022/07/18 01:07:29;;;;;;;6.88;2.97;;;;;;;26.82;45.92;101307.19;5116406;28;20046;-69
2022/07/18 01:10:14;;;;;;;8.13;3.15;;;;;;;26.25;48.07;101304.06;5113869;28;20043;-67
2022/07/18 01:13:00;;;;;;;10.43;3.53;;;;;;;25.85;49.48;101305.44;5102427;28;20042;-68
2022/07/18 01:15:45;;;;;;;5.07;3.33;;;;;;;25.85;49.05;101305.44;5094724;28;20395;-68
2022/07/18 01:18:30;;;;;;;7.60;3.47;;;;;;;26.10;48.86;101300.53;5097636;28;20042;-67
2022/07/18 01:21:15;;;;;;;4.75;3.15;;;;;;;26.12;48.51;101305.69;5114589;28;20398;-68
2022/07/18 01:24:00;;;;;;;4.97;3.40;;;;;;;25.97;48.02;101305.78;5114262;28;20087;-67
2022/07/18 01:26:45;;;;;;;6.07;4.05;;;;;;;25.75;49.07;101303.50;5111999;28;20039;-67
2022/07/18 01:29:30;;;;;;;6.35;4.25;;;;;;;25.65;49.22;101307.13;5105667;28;20076;-67
2022/07/18 01:32:16;;;;;;;6.13;3.28;;;;;;;26.05;48.59;101314.13;5106042;28;20047;-67
2022/07/18 01:35:01;;;;;;;4.47;3.30;;;;;;;26.38;47.40;101311.53;5114691;28;20125;-68
2022/07/18 01:37:50;;;;;;;7.18;4.60;;;;;;;26.62;46.96;101314.53;5102149;28;20039;-67
2022/07/18 01:40:35;;;;;;;5.25;3.60;;;;;;;26.28;47.16;101312.41;5104275;28;20058;-71
2022/07/18 01:43:20;;;;;;;12.50;4.43;;;;;;;25.69;48.54;101314.28;5111286;28;20043;-70
2022/07/18 01:46:05;;;;;;;11.20;4.30;;;;;;;25.50;49.40;101315.47;5113130;28;20051;-70
2022/07/18 01:48:50;;;;;;;6.47;3.85;;;;;;;25.64;49.13;101316.69;5111650;28;20054;-69
2022/07/18 01:51:35;;;;;;;5.88;3.85;;;;;;;25.60;48.88;101316.66;5112664;28;20437;-69
2022/07/18 01:54:21;;;;;;;4.28;3.38;;;;;;;25.42;49.56;101316.72;5118391;28;20042;-69
2022/07/18 01:57:07;;;;;;;7.95;4.53;;;;;;;25.23;50.32;101319.13;5095668;28;20403;-70
2022/07/18 01:59:52;;;;;;;8.60;4.53;;;;;;;24.92;51.56;101315.19;5113848;28;20510;-69
2022/07/18 02:02:37;;;;;;;10.52;4.50;;;;;;;25.02;51.34;101311.63;5113530;28;20063;-70
2022/07/18 02:05:22;;;;;;;13.82;4.00;;;;;;;24.85;52.05;101304.03;5116792;28;20046;-70
2022/07/18 02:08:07;;;;;;;7.40;4.50;;;;;;;24.77;52.42;101317.16;5111335;28;20502;-70
2022/07/18 02:10:52;;;;;;;5.38;3.10;;;;;;;26.04;49.75;101323.66;5113321;28;20047;-66
2022/07/18 02:13:38;;;;;;;5.10;3.80;;;;;;;26.78;47.51;101314.81;5116833;28;20058;-67
2022/07/18 02:16:23;;;;;;;6.93;3.40;;;;;;;26.65;47.89;101324.91;5104801;28;20180;-67
2022/07/18 02:19:08;;;;;;;5.75;3.88;;;;;;;26.06;49.08;101321.28;5095717;28;20153;-70
2022/07/18 02:21:53;;;;;;;8.75;4.85;;;;;;;25.93;49.47;101312.56;5092869;28;20059;-70
2022/07/18 02:24:38;;;;;;;12.30;5.45;;;;;;;25.70;49.14;101321.41;5092885;28;20051;-69
2022/07/18 02:27:23;;;;;;;12.40;5.05;;;;;;;25.21;50.79;101313.97;5111713;28;20047;-70
2022/07/18 02:30:10;;;;;;;15.13;5.22;;;;;;;24.90;51.95;101309.22;5111558;28;20065;-69
2022/07/18 02:32:55;;;;;;;11.55;5.72;;;;;;;24.65;52.85;101311.97;5115352;28;20044;-69
2022/07/18 02:35:40;;;;;;;7.20;5.20;;;;;;;24.39;53.69;101304.81;5112515;28;20053;-68
2022/07/18 02:38:25;;;;;;;8.45;4.63;;;;;;;24.59;53.27;101302.44;5112296;28;20042;-68
2022/07/18 02:41:10;;;;;;;11.50;5.38;;;;;;;24.85;52.84;101307.59;5112752;28;20055;-68
2022/07/18 02:43:55;;;;;;;6.25;4.93;;;;;;;25.02;52.19;101303.25;5113011;28;20051;-68
2022/07/18 02:46:41;;;;;;;9.05;4.95;;;;;;;25.22;51.56;101303.63;5112467;28;20413;-69
2022/07/18 02:49:29;;;;;;;10.77;5.07;;;;;;;25.37;51.35;101303.19;5112890;28;20520;-68
2022/07/18 02:52:13;;;;;;;13.75;4.15;;;;;;;25.82;49.89;101309.03;5112415;28;20043;-68
2022/07/18 02:55:00;;;;;;;10.45;4.47;;;;;;;26.08;49.33;101308.50;5112468;28;20042;-69
2022/07/18 02:57:46;;;;;;;6.20;3.53;;;;;;;26.77;48.11;101305.66;5106000;28;20047;-68
2022/07/18 03:00:31;;;;;;;4.88;2.90;;;;;;;27.25;47.33;101302.06;5112669;28;20410;-69
2022/07/18 03:03:16;;;;;;;5.10;2.75;;;;;;;27.51;46.43;101315.38;5112192;28;20070;-68
2022/07/18 03:06:01;;;;;;;4.75;2.72;;;;;;;27.68;46.21;101313.59;5112494;28;20054;-68
2022/07/18 03:08:46;;;;;;;5.32;3.08;;;;;;;27.83;45.53;101308.59;5112135;28;20050;-68
2022/07/18 03:11:31;;;;;;;5.85;3.00;;;;;;;27.93;45.69;101314.06;5111952;28;20051;-69
2022/07/18 03:14:16;;;;;;;4.22;2.65;;;;;;;28.03;44.98;101315.13;5110745;28;20039;-68
2022/07/18 03:17:01;;;;;;;9.70;4.00;;;;;;;27.86;43.39;101314.13;5111901;28;20229;-67
2022/07/18 03:19:46;;;;;;;13.35;3.67;;;;;;;26.99;44.20;101309.09;5091785;28;20403;-67
2022/07/18 03:22:33;;;;;;;9.80;4.10;;;;;;;26.59;45.90;101309.81;5091603;28;20055;-67
2022/07/18 03:25:17;;;;;;;5.05;3.00;;;;;;;26.18;47.10;101316.00;5091902;28;20118;-66
2022/07/18 03:28:02;;;;;;;8.30;3.60;;;;;;;26.28;46.60;101309.63;5098656;28;20046;-67
2022/07/18 03:30:47;;;;;;;6.63;4.00;;;;;;;26.34;46.07;101309.97;5112111;28;20055;-68
2022/07/18 03:33:33;;;;;;;6.50;3.42;;;;;;;26.50;45.09;101310.28;5109339;28;20445;-68
2022/07/18 03:36:18;;;;;;;4.93;3.40;;;;;;;27.13;45.85;101313.72;5107779;28;20418;-68
2022/07/18 03:39:05;;;;;;;4.10;2.72;;;;;;;27.52;45.43;101322.53;5108060;28;20047;-68
2022/07/18 03:41:52;;;;;;;4.85;2.60;;;;;;;27.81;45.06;101322.19;5106327;28;20410;-68
2022/07/18 03:44:36;;;;;;;10.73;2.85;;;;;;;28.00;44.37;101318.75;5111797;28;20050;-67
2022/07/18 03:47:21;;;;;;;5.85;3.45;;;;;;;28.04;43.81;101317.47;5111464;28;20062;-68
2022/07/18 03:50:07;;;;;;;7.35;3.20;;;;;;;27.63;44.69;101314.81;5111386;28;20042;-69
2022/07/18 03:52:53;;;;;;;6.53;4.00;;;;;;;26.78;43.97;101306.44;5111037;28;20050;-68
2022/07/18 03:55:38;;;;;;;5.47;3.42;;;;;;;25.94;46.13;101303.00;5105825;28;20670;-68
2022/07/18 03:58:23;;;;;;;17.05;4.50;;;;;;;25.65;47.33;101302.31;5111261;28;20062;-67
2022/07/18 04:01:08;;;;;;;7.88;3.90;;;;;;;25.52;47.51;101301.16;5111713;28;20406;-68
2022/07/18 04:03:53;;;;;;;9.77;4.85;;;;;;;25.58;46.93;101301.56;5106556;28;20050;-69
2022/07/18 04:06:38;;;;;;;8.30;4.72;;;;;;;25.37;47.34;101303.19;5116046;28;20235;-69
2022/07/18 04:09:23;;;;;;;7.28;4.65;;;;;;;25.39;47.25;101311.94;5108945;28;20059;-68
2022/07/18 04:12:08;;;;;;;7.53;5.00;;;;;;;25.46;46.59;101317.50;5100759;28;20042;-70
2022/07/18 04:14:53;;;;;;;7.88;4.65;;;;;;;25.32;46.17;101306.38;5113342;28;20055;-69
2022/07/18 04:17:38;;;;;;;8.02;4.97;;;;;;;25.55;45.08;101309.53;5113924;28;20398;-68
2022/07/18 04:20:23;;;;;;;12.20;5.00;;;;;;;25.65;45.42;101307.13;5112980;28;20051;-69
2022/07/18 04:23:10;;;;;;;11.73;5.50;;;;;;;25.66;45.16;101314.25;5107061;28;20055;-70
2022/07/18 04:25:55;;;;;;;14.63;5.47;;;;;;;25.96;44.14;101318.13;5115698;28;20309;-69
2022/07/18 04:28:40;;;;;;;9.80;5.65;;;;;;;25.90;44.60;101311.41;5103633;28;20391;-69
2022/07/18 04:31:25;;;;;;;22.08;6.53;;;;;;;25.98;43.87;101312.94;5114965;28;20054;-69
2022/07/18 04:34:10;;;;;;;10.55;6.13;;;;;;;26.15;42.85;101319.63;5115279;28;20043;-69
2022/07/18 04:36:51;;;;;;;17.73;6.57;;;;;;;25.98;43.59;101314.94;5094299;28;20051;-79
2022/07/18 04:39:36;;;;;;;10.52;5.82;;;;;;;26.33;42.54;101320.34;5093008;28;20051;-79
2022/07/18 04:42:21;;;;;;;10.52;5.70;;;;;;;26.59;41.39;101330.13;5097639;28;20047;-80
2022/07/18 04:45:07;;;;;;;10.13;5.10;;;;;;;26.42;41.83;101338.59;5102859;22;20047;-69
2022/07/18 04:47:54;;;;;;;10.82;5.28;;;;;;;26.44;41.89;101330.63;5097157;28;20055;-69
2022/07/18 04:50:39;;;;;;;12.88;4.60;;;;;;;26.42;41.45;101341.38;5094359;28;20047;-69
2022/07/18 04:53:24;;;;;;;6.28;4.38;;;;;;;26.19;42.70;101337.13;5087472;28;20387;-71
2022/07/18 04:56:09;;;;;;;13.13;4.93;;;;;;;26.41;42.29;101329.47;5083783;28;20047;-71
2022/07/18 04:58:54;;;;;;;10.50;4.43;;;;;;;26.55;41.89;101336.94;5090927;28;20054;-68
2022/07/18 05:01:39;;;;;;;8.10;5.13;;;;;;;26.94;41.67;101334.66;5082155;28;20051;-69
2022/07/18 05:04:24;;;;;;;10.65;4.90;;;;;;;27.26;41.22;101337.16;5084738;28;20059;-69
2022/07/18 05:07:09;;;;;;;12.77;4.45;;;;;;;27.29;39.80;101343.91;5085314;28;20055;-69
2022/07/18 05:09:54;;;;;;;13.48;5.30;;;;;;;27.45;40.25;101333.75;5093937;28;20055;-69
2022/07/18 05:12:41;;;;;;;9.82;4.43;;;;;;;27.48;39.73;101337.75;5093780;28;20051;-69
2022/07/18 05:15:26;;;;;;;11.95;4.07;;;;;;;27.21;40.11;101341.19;5094013;28;20509;-68
2022/07/18 05:18:11;;;;;;;15.98;5.60;;;;;;;27.13;40.53;101336.88;5078905;28;20051;-68
2022/07/18 05:20:56;;;;;;;14.07;4.10;;;;;;;26.88;40.86;101339.09;5081940;28;20687;-67
2022/07/18 05:23:41;;;;;;;36.67;4.68;;;;;;;26.56;41.75;101339.31;5073094;28;20044;-67
2022/07/18 05:26:26;;;;;;;14.80;4.53;;;;;;;26.62;41.30;101337.66;5084220;28;20046;-67
2022/07/18 05:29:12;;;;;;;10.40;4.28;;;;;;;26.75;40.58;101333.19;5080749;28;20399;-66
2022/07/18 05:31:58;;;;;;;15.82;4.65;;;;;;;26.90;40.15;101336.69;5093261;28;20047;-67
2022/07/18 05:34:43;;;;;;;15.10;3.83;;;;;;;26.80;40.29;101338.34;5083180;28;20039;-69
2022/07/18 05:37:31;;;;;;;13.10;4.13;;;;;;;26.91;39.88;101337.50;5079192;28;20107;-66
2022/07/18 05:40:16;;;;;;;24.10;4.20;;;;;;;27.22;39.49;101331.63;5090902;28;20063;-67
2022/07/18 05:43:02;;;;;;;21.92;3.85;;;;;;;27.05;39.51;101348.53;5082082;28;20067;-65
2022/07/18 05:45:47;;;;;;;18.25;3.53;;;;;;;27.04;39.47;101336.56;5073466;28;20055;-67
2022/07/18 05:48:32;;;;;;;19.33;4.10;;;;;;;27.07;39.35;101343.34;5085530;28;20055;-68
2022/07/18 05:51:18;;;;;;;18.30;3.47;;;;;;;26.98;39.04;101338.22;5092033;28;20043;-67
2022/07/18 05:54:03;;;;;;;14.50;3.75;;;;;;;27.07;39.42;101355.25;5098309;28;20043;-67
2022/07/18 05:56:50;;;;;;;13.10;3.53;;;;;;;27.14;38.65;101351.63;5086770;28;20047;-67
2022/07/18 05:59:34;;;;;;;12.90;3.38;;;;;;;27.20;38.34;101355.56;5075629;28;20063;-67
2022/07/18 06:02:19;;;;;;;13.70;3.35;;;;;;;27.21;38.22;101348.78;5076899;28;20288;-67
2022/07/18 06:05:06;;;;;;;67.47;7.10;;;;;;;27.08;38.35;101353.28;5076212;28;20044;-67
2022/07/18 06:07:53;;;;;;;10.98;4.30;;;;;;;27.20;38.31;101350.78;5082422;28;20059;-67
2022/07/18 06:10:38;;;;;;;22.10;4.68;;;;;;;27.26;37.78;101364.28;5090319;28;20411;-67
2022/07/18 06:13:23;;;;;;;24.98;4.22;;;;;;;27.22;37.98;101359.53;5080027;28;20051;-67
2022/07/18 06:16:09;;;;;;;10.35;3.97;;;;;;;27.13;37.71;101355.63;5084591;28;20047;-64
2022/07/18 06:18:53;;;;;;;10.38;4.07;;;;;;;27.18;38.30;101357.97;5091498;28;20517;-64
2022/07/18 06:21:38;;;;;;;11.68;3.78;;;;;;;27.22;37.15;101353.97;5087070;28;20533;-66
2022/07/18 06:24:24;;;;;;;9.75;3.50;;;;;;;27.07;37.57;101358.06;5097394;28;20048;-66
2022/07/18 06:27:08;;;;;;;18.38;3.45;;;;;;;27.24;37.71;101359.91;5087958;28;20056;-65
2022/07/18 06:29:53;;;;;;;13.80;3.83;;;;;;;27.29;37.72;101355.06;5086477;28;20039;-65
2022/07/18 06:32:39;;;;;;;10.02;3.22;;;;;;;27.48;37.04;101355.25;5088251;28;20047;-64
2022/07/18 06:35:25;;;;;;;10.35;3.22;;;;;;;27.58;36.71;101368.38;5075372;28;20039;-64
2022/07/18 06:38:09;;;;;;;6.78;3.45;;;;;;;27.57;36.99;101368.78;5076364;28;20051;-65
2022/07/18 06:40:54;;;;;;;10.80;3.47;;;;;;;27.56;36.83;101364.41;5088330;28;20043;-66
2022/07/18 06:43:41;;;;;;;14.38;3.17;;;;;;;27.60;36.57;101368.75;5076972;28;22720;-66
2022/07/18 06:46:26;;;;;;;10.35;3.33;;;;;;;27.61;37.05;101373.13;5082424;28;20047;-64
2022/07/18 06:49:11;;;;;;;16.80;3.50;;;;;;;27.59;36.88;101371.94;5085651;28;20410;-64
2022/07/18 06:51:56;;;;;;;9.20;3.30;;;;;;;27.81;36.15;101372.50;5083693;28;20413;-69
2022/07/18 06:54:41;;;;;;;22.85;5.60;;;;;;;27.99;36.40;101375.88;5077330;28;20118;-69
2022/07/18 06:57:25;;;;;;;9.95;3.38;;;;;;;28.05;36.00;101382.59;5076166;28;20043;-69
2022/07/18 07:00:13;;;;;;;45.75;3.95;;;;;;;28.15;35.06;101387.28;5083813;28;20505;-66
2022/07/18 07:02:57;;;;;;;7.97;2.70;;;;;;;28.30;34.92;101383.09;5091841;28;20395;-66
2022/07/18 07:05:42;;;;;;;8.93;3.03;;;;;;;28.48;34.68;101380.84;5080593;28;20047;-66
2022/07/18 07:08:27;;;;;;;5.43;2.97;;;;;;;28.56;34.09;101387.13;5091749;28;20043;-65
2022/07/18 07:11:13;;;;;;;8.75;3.03;;;;;;;28.68;34.30;101389.34;5086949;28;20047;-64
2022/07/18 07:13:58;;;;;;;10.07;2.80;;;;;;;28.77;32.98;101391.63;5080323;28;20392;-63
2022/07/18 07:16:42;;;;;;;15.35;2.90;;;;;;;28.75;33.35;101391.28;5072133;28;20490;-63
2022/07/18 07:19:27;;;;;;;17.48;3.35;;;;;;;28.69;33.14;101388.16;5071875;28;20051;-71
2022/07/18 07:22:12;;;;;;;11.85;3.33;;;;;;;28.71;32.83;101384.91;5080728;28;20058;-63
2022/07/18 07:24:58;;;;;;;11.05;3.42;;;;;;;28.73;32.02;101385.31;5091127;28;20043;-62
2022/07/18 07:27:44;;;;;;;15.15;4.05;;;;;;;28.75;32.21;101385.69;5089584;28;20052;-61
2022/07/18 07:30:29;;;;;;;12.18;3.95;;;;;;;28.84;32.42;101386.75;5079322;28;20071;-62
2022/07/18 07:33:14;;;;;;;13.73;4.00;;;;;;;28.75;31.65;101380.84;5090775;28;20058;-62
2022/07/18 07:36:00;;;;;;;9.50;4.18;;;;;;;28.81;32.32;101387.56;5075315;28;20055;-63
2022/07/18 07:38:45;;;;;;;24.08;4.85;;;;;;;28.82;31.98;101383.56;5085159;28;20047;-64
2022/07/18 07:41:30;;;;;;;13.43;4.50;;;;;;;28.98;32.13;101385.72;5091215;28;20050;-63
2022/07/18 07:44:15;;;;;;;12.60;5.43;;;;;;;29.05;31.94;101379.19;5091266;28;20043;-64
2022/07/18 07:47:00;;;;;;;9.07;4.28;;;;;;;29.04;31.15;101383.22;5091853;28;20399;-64
2022/07/18 07:49:45;;;;;;;8.73;3.67;;;;;;;29.14;30.86;101379.44;5076258;28;20043;-63
2022/07/18 07:52:30;;;;;;;16.58;4.30;;;;;;;29.16;30.30;101376.97;5078276;28;20039;-63
2022/07/18 07:55:15;;;;;;;6.75;2.92;;;;;;;29.13;30.52;101380.66;5070979;28;20051;-64
2022/07/18 07:58:00;;;;;;;13.10;3.40;;;;;;;29.19;30.90;101373.34;5071069;28;20043;-63
2022/07/18 08:00:45;;;;;;;28.40;4.07;;;;;;;29.23;30.71;101376.88;5070469;28;20059;-63
2022/07/18 08:03:30;;;;;;;13.40;3.20;;;;;;;29.15;31.00;101375.44;5070601;28;20059;-63
2022/07/18 08:06:15;;;;;;;18.42;5.78;;;;;;;29.20;31.09;101378.53;5070623;28;20039;-63
2022/07/18 08:09:00;;;;;;;8.50;2.55;;;;;;;29.39;30.60;101373.41;5071955;28;20043;-63
2022/07/18 08:11:46;;;;;;;6.38;2.70;;;;;;;29.40;30.83;101375.81;5074723;28;20043;-63
2022/07/18 08:14:33;;;;;;;8.65;3.33;;;;;;;29.32;30.24;101375.13;5069757;28;20423;-63
2022/07/18 08:17:17;;;;;;;11.73;3.22;;;;;;;29.28;30.84;101381.97;5070120;28;20048;-64
2022/07/18 08:20:03;;;;;;;8.52;3.42;;;;;;;29.33;30.46;101376.72;5073211;28;20505;-63
2022/07/18 08:22:57;;;;;;;8.10;3.85;;;;;;;29.38;31.46;101380.25;5070452;28;20502;-63
2022/07/18 08:25:44;;;;;;;6.57;2.50;;;;;;;29.47;30.39;101380.47;5071495;28;20055;-63
2022/07/18 08:28:29;;;;;;;14.30;2.95;;;;;;;29.47;30.99;101386.06;5082816;28;20072;-63
2022/07/18 08:31:14;;;;;;;6.75;2.20;;;;;;;29.46;30.04;101374.06;5081451;28;20055;-63
2022/07/18 08:33:59;;;;;;;11.88;2.70;;;;;;;29.55;30.57;101381.94;5081837;28;20058;-63
2022/07/18 08:36:47;;;;;;;8.05;2.60;;;;;;;29.65;31.39;101384.53;5092649;28;20043;-63
2022/07/18 08:39:32;;;;;;;5.78;2.55;;;;;;;29.52;30.88;101383.56;5092989;28;20047;-63
2022/07/18 08:42:22;;;;;;;7.63;2.10;;;;;;;29.79;29.79;101379.84;5090079;28;20047;-63
2022/07/18 08:45:07;;;;;;;3.75;1.73;;;;;;;29.72;30.35;101384.38;5090256;28;20043;-63
2022/07/18 08:47:52;;;;;;;6.80;2.15;;;;;;;29.71;30.78;101388.41;5089213;28;20043;-63
2022/07/18 08:50:38;;;;;;;3.50;2.03;;;;;;;29.73;31.15;101383.16;5085381;28;20051;-63
2022/07/18 08:53:22;;;;;;;5.30;2.65;;;;;;;29.80;31.56;101384.25;5076515;28;20119;-63
2022/07/18 08:56:07;;;;;;;7.53;1.67;;;;;;;29.93;31.55;101382.41;5079958;28;20047;-63
2022/07/18 08:58:52;;;;;;;5.88;2.83;;;;;;;29.91;31.66;101377.25;5074268;28;20055;-63
2022/07/18 09:01:37;;;;;;;3.22;1.90;;;;;;;29.92;31.76;101380.84;5077013;28;20051;-63
2022/07/18 09:04:32;;;;;;;5.03;2.17;;;;;;;29.96;32.77;101378.75;5074027;28;20044;-63
2022/07/18 09:07:30;;;;;;;4.88;2.63;;;;;;;29.94;32.38;101381.19;5073831;28;20052;-63
2022/07/18 09:10:16;;;;;;;6.30;2.28;;;;;;;30.00;32.90;101379.47;5073809;28;20506;-63
2022/07/18 09:13:01;;;;;;;12.10;2.95;;;;;;;30.05;32.14;101382.53;5074078;28;20043;-63
2022/07/18 09:16:06;;;;;;;9.18;3.33;;;;;;;30.13;31.80;101383.97;5071433;28;20029;-63
2022/07/18 09:18:51;;;;;;;11.23;3.58;;;;;;;30.15;32.31;101389.94;5082671;28;20593;-63
2022/07/18 09:21:37;;;;;;;5.30;3.08;;;;;;;30.10;32.96;101389.66;5084655;28;20051;-63
2022/07/18 09:24:22;;;;;;;8.50;3.55;;;;;;;30.06;32.28;101386.94;5080310;28;20418;-63
2022/07/18 09:27:23;;;;;;;12.57;3.38;;;;;;;29.99;32.62;101384.28;5081262;28;20048;-63
2022/07/18 09:30:24;;;;;;;8.85;3.40;;;;;;;30.04;32.42;101380.16;5082925;28;20054;-63
2022/07/18 09:33:11;;;;;;;14.18;3.78;;;;;;;30.10;31.95;101378.44;5086944;28;20038;-63
2022/07/18 09:35:56;;;;;;;6.57;3.35;;;;;;;30.13;31.85;101383.97;5080338;28;20043;-63
2022/07/18 09:38:41;;;;;;;5.03;3.13;;;;;;;30.23;31.86;101378.56;5079375;28;20052;-63
2022/07/18 09:41:30;;;;;;;8.95;3.10;;;;;;;30.28;31.81;101378.84;5073423;28;20052;-63
2022/07/18 09:44:17;;;;;;;10.48;3.33;;;;;;;30.36;32.13;101380.28;5091892;28;20035;-63
2022/07/18 09:47:03;;;;;;;5.25;2.58;;;;;;;30.48;32.85;101385.22;5091991;28;20059;-63
2022/07/18 09:49:48;;;;;;;9.02;3.08;;;;;;;30.55;31.99;101373.84;5087153;28;20043;-63
2022/07/18 09:52:33;;;;;;;11.45;2.67;;;;;;;30.45;31.60;101382.47;5082731;28;20052;-63
2022/07/18 09:55:18;;;;;;;6.72;2.85;;;;;;;30.48;32.54;101376.00;5078117;28;20040;-63
2022/07/18 09:58:07;;;;;;;5.97;2.55;;;;;;;30.67;32.00;101377.97;5080886;28;20040;-63
2022/07/18 10:00:55;;;;;;;4.55;2.00;;;;;;;30.68;31.64;101378.78;5086707;28;20043;-63
2022/07/18 10:03:39;;;;;;;4.70;2.47;;;;;;;30.81;31.52;101379.66;5077178;28;20062;-63
2022/07/18 10:06:25;;;;;;;10.65;2.88;;;;;;;30.78;32.52;101378.50;5096253;28;20059;-63
2022/07/18 10:09:10;;;;;;;3.53;1.90;;;;;;;30.85;31.29;101371.91;5075210;28;20060;-64
2022/07/18 10:11:55;;;;;;;6.80;2.00;;;;;;;30.92;32.21;101383.00;5071916;28;20517;-63
2022/07/18 10:14:40;;;;;;;5.47;2.35;;;;;;;30.86;32.21;101368.69;5072012;28;20059;-63
2022/07/18 10:17:25;;;;;;;6.57;2.00;;;;;;;31.05;32.41;101369.84;5072294;28;20043;-63
2022/07/18 10:20:11;;;;;;;5.10;1.80;;;;;;;31.12;31.93;101378.09;5073390;28;20044;-63
2022/07/18 10:23:02;;;;;;;4.00;2.20;;;;;;;31.11;30.78;101372.91;5072050;28;20510;-63
2022/07/18 10:26:13;;;;;;;5.78;2.38;;;;;;;31.03;30.79;101368.72;5072159;28;20048;-63
2022/07/18 10:29:08;;;;;;;7.25;2.40;;;;;;;30.77;31.61;101370.53;5072164;28;20047;-63
2022/07/18 10:32:07;;;;;;;14.15;2.50;;;;;;;31.03;31.39;101361.06;5071671;28;20411;-63
2022/07/18 10:34:51;;;;;;;59.45;34.38;;;;;;;31.17;31.15;101355.09;5089727;22;20094;-68
2022/07/18 10:37:37;;;;;;;7.82;2.53;;;;;;;31.33;30.87;101357.06;5082081;28;20598;-68
2022/07/18 10:40:27;;;;;;;9.65;2.25;;;;;;;31.41;30.51;101364.88;5066459;28;20411;-67
2022/07/18 10:43:31;;;;;;;3.85;2.25;;;;;;;31.45;30.94;101364.75;5072682;28;20039;-67
2022/07/18 10:46:15;;;;;;;5.45;2.05;;;;;;;31.44;31.87;101358.34;5065790;28;20044;-68
2022/07/18 10:49:00;;;;;;;11.52;2.25;;;;;;;31.50;32.95;101355.00;5065708;28;20047;-68
2022/07/18 10:51:45;;;;;;;4.20;2.00;;;;;;;31.54;32.46;101356.50;5065057;28;20035;-67
2022/07/18 10:54:30;;;;;;;4.75;1.90;;;;;;;31.64;31.68;101351.84;5051903;28;20048;-67
2022/07/18 10:57:15;;;;;;;7.07;2.22;;;;;;;31.56;31.46;101356.03;5072227;28;20043;-67
2022/07/18 11:00:08;;;;;;;5.03;2.20;;;;;;;31.57;32.45;101347.19;5054657;28;20064;-67
2022/07/18 11:02:59;;;;;;;12.77;2.25;;;;;;;31.62;32.08;101343.81;5067768;28;20036;-67
2022/07/18 11:05:46;;;;;;;7.32;1.60;;;;;;;31.62;31.80;101351.47;5065444;28;20059;-67
2022/07/18 11:08:33;;;;;;;6.50;2.05;;;;;;;31.59;32.12;101346.75;5071178;28;20044;-67
2022/07/18 11:11:18;;;;;;;3.03;1.73;;;;;;;31.76;32.08;101342.63;5066108;28;20043;-65
2022/07/18 11:14:02;;;;;;;12.27;1.73;;;;;;;31.70;31.79;101335.97;5071324;28;20047;-68
2022/07/18 11:17:04;;;;;;;3.85;1.77;;;;;;;31.82;32.00;101335.22;5071949;28;20099;-68
2022/07/18 11:20:31;;;;;;;5.80;2.03;;;;;;;31.86;31.21;101327.47;5053609;28;20043;-67
2022/07/18 11:23:22;;;;;;;4.43;1.48;;;;;;;31.95;32.07;101330.41;5061059;28;20055;-66
2022/07/18 11:26:14;;;;;;;16.08;3.03;;;;;;;32.01;32.11;101327.81;5050599;28;20056;-68
2022/07/18 11:29:10;;;;;;;3.75;2.22;;;;;;;32.03;31.26;101328.16;5068484;28;20047;-67
2022/07/18 11:31:57;;;;;;;3.20;2.00;;;;;;;32.01;31.14;101328.59;5055507;28;20522;-67
2022/07/18 11:34:50;;;;;;;8.68;2.25;;;;;;;32.00;31.31;101321.41;5056430;28;20052;-66
2022/07/18 11:37:36;;;;;;;6.35;1.90;;;;;;;31.99;31.15;101324.69;5070800;28;20047;-67
2022/07/18 11:40:22;;;;;;;4.88;2.05;;;;;;;31.84;32.03;101313.06;5061185;28;20048;-68
2022/07/18 11:43:07;;;;;;;5.95;2.03;;;;;;;32.01;32.06;101311.72;5054727;28;20044;-67
2022/07/18 11:46:10;;;;;;;2.80;1.80;;;;;;;32.10;30.92;101306.22;5067210;28;20039;-67
2022/07/18 11:49:01;;;;;;;7.45;1.98;;;;;;;32.13;31.41;101302.53;5051327;28;20047;-68
2022/07/18 11:51:47;;;;;;;4.70;1.70;;;;;;;32.06;30.25;101304.75;5051573;28;20048;-67
2022/07/18 11:54:34;;;;;;;3.67;1.40;;;;;;;32.12;30.51;101306.59;5050712;28;20044;-66
2022/07/18 11:57:27;;;;;;;7.20;1.88;;;;;;;32.22;30.79;101297.03;5050641;28;20071;-67
2022/07/18 12:00:18;;;;;;;7.25;2.00;;;;;;;32.30;30.46;101299.63;5058608;28;20047;-68
2022/07/18 12:03:16;;;;;;;2.75;1.48;;;;;;;32.42;30.65;101298.81;5061434;28;20060;-66
2022/07/18 12:06:15;;;;;;;5.57;1.70;;;;;;;32.28;31.12;101290.81;5066973;28;20055;-67
2022/07/18 12:09:00;;;;;;;2.63;1.60;;;;;;;32.19;30.47;101281.03;5050546;28;20539;-67
2022/07/18 12:11:45;;;;;;;5.72;1.67;;;;;;;32.03;31.11;101283.16;5052879;28;20038;-67
2022/07/18 12:14:31;;;;;;;3.42;1.85;;;;;;;32.12;31.30;101278.44;5063648;28;20056;-67
2022/07/18 12:17:16;;;;;;;2.90;1.73;;;;;;;32.37;30.43;101277.66;5053288;28;20519;-67
2022/07/18 12:20:11;;;;;;;4.50;1.85;;;;;;;32.36;30.71;101270.44;5051532;28;20060;-68
2022/07/18 12:23:11;;;;;;;4.10;1.92;;;;;;;32.33;30.94;101270.56;5058049;28;20424;-67
2022/07/18 12:25:57;;;;;;;5.28;2.10;;;;;;;32.11;30.80;101273.25;5063129;28;20048;-67
2022/07/18 12:28:42;;;;;;;5.70;1.90;;;;;;;32.32;30.38;101272.59;5058671;28;20391;-68
2022/07/18 12:31:41;;;;;;;5.88;1.85;;;;;;;32.31;30.37;101265.38;5053135;28;20047;-67
2022/07/18 12:34:26;;;;;;;7.85;2.47;;;;;;;32.33;31.35;101259.28;5070449;28;20047;-67
2022/07/18 12:37:11;;;;;;;3.58;2.13;;;;;;;32.23;31.46;101261.22;5073800;28;20047;-67
2022/07/18 12:39:58;;;;;;;5.28;1.73;;;;;;;32.35;31.84;101259.63;5075222;28;20040;-67
2022/07/18 12:42:43;;;;;;;2.90;2.20;;;;;;;32.48;30.67;101257.59;5067873;28;20047;-67
2022/07/18 12:45:28;;;;;;;7.13;1.95;;;;;;;32.26;31.71;101251.84;5062370;28;20043;-67
2022/07/18 12:48:13;;;;;;;6.85;2.72;;;;;;;32.00;32.24;101248.22;5062135;28;20040;-68
2022/07/18 12:51:01;;;;;;;8.07;1.88;;;;;;;32.36;31.62;101236.63;5070073;28;20047;-67